sensor_id;sensor_type;location;lat;lon;timestamp;temperature;humidity
20740;DHT22;10530;49.968;19.844;2023-04-24T00:02:32;10.00;99.90
20740;DHT22;10530;49.968;19.844;2023-04-24T00:07:35;9.90;99.90
20740;DHT22;10530;49.968;19.844;2023-04-24T00:12:38;9.80;99.90
20740;DHT22;10530;49.968;19.844;2023-04-24T00:17:41;9.80;99.90
20740;DHT22;10530;49.968;19.844;2023-04-24T00:22:44;9.50;99.90
20740;DHT22;10530;49.968;19.844;2023-04-24T00:27:46;9.50;99.90
20740;DHT22;10530;49.968;19.844;2023-04-24T00:32:49;9.40;99.90
20740;DHT22;10530;49.968;19.844;2023-04-24T00:37:52;9.20;99.90
20740;DHT22;10530;49.968;19.844;2023-04-24T00:42:55;9.00;99.90
20740;DHT22;10530;49.968;19.844;2023-04-24T00:48:00;9.00;99.90
20740;DHT22;10530;49.968;19.844;2023-04-24T00:53:03;8.90;99.90
20740;DHT22;10530;49.968;19.844;2023-04-24T00:58:06;8.70;99.90
20740;DHT22;10530;49.968;19.844;2023-04-24T01:03:10;8.60;99.90
20740;DHT22;10530;49.968;19.844;2023-04-24T01:08:14;8.70;99.90
20740;DHT22;10530;49.968;19.844;2023-04-24T01:13:18;8.80;99.90
20740;DHT22;10530;49.968;19.844;2023-04-24T01:18:21;8.90;99.90
20740;DHT22;10530;49.968;19.844;2023-04-24T01:23:26;9.10;99.90
20740;DHT22;10530;49.968;19.844;2023-04-24T01:28:29;9.10;99.90
20740;DHT22;10530;49.968;19.844;2023-04-24T01:33:32;9.10;99.90
20740;DHT22;10530;49.968;19.844;2023-04-24T01:38:35;9.10;99.90
20740;DHT22;10530;49.968;19.844;2023-04-24T01:43:38;9.00;99.90
20740;DHT22;10530;49.968;19.844;2023-04-24T01:48:41;9.20;99.90
20740;DHT22;10530;49.968;19.844;2023-04-24T01:53:44;9.30;99.90
20740;DHT22;10530;49.968;19.844;2023-04-24T01:58:47;9.30;99.90
20740;DHT22;10530;49.968;19.844;2023-04-24T02:03:51;9.70;99.90
20740;DHT22;10530;49.968;19.844;2023-04-24T02:08:54;9.80;99.90
20740;DHT22;10530;49.968;19.844;2023-04-24T02:13:57;10.00;99.90
20740;DHT22;10530;49.968;19.844;2023-04-24T02:19:00;10.10;97.10
20740;DHT22;10530;49.968;19.844;2023-04-24T02:24:03;10.00;96.80
20740;DHT22;10530;49.968;19.844;2023-04-24T02:29:06;10.20;94.40
20740;DHT22;10530;49.968;19.844;2023-04-24T02:34:08;10.20;96.20
20740;DHT22;10530;49.968;19.844;2023-04-24T02:39:11;10.40;92.40
20740;DHT22;10530;49.968;19.844;2023-04-24T02:44:15;10.60;87.40
20740;DHT22;10530;49.968;19.844;2023-04-24T02:49:19;10.70;85.90
20740;DHT22;10530;49.968;19.844;2023-04-24T02:54:22;10.60;84.60
20740;DHT22;10530;49.968;19.844;2023-04-24T02:59:25;10.20;91.20
20740;DHT22;10530;49.968;19.844;2023-04-24T03:04:29;10.30;90.20
20740;DHT22;10530;49.968;19.844;2023-04-24T03:09:32;10.10;92.40
20740;DHT22;10530;49.968;19.844;2023-04-24T03:14:35;10.20;92.40
20740;DHT22;10530;49.968;19.844;2023-04-24T03:19:38;10.20;91.70
20740;DHT22;10530;49.968;19.844;2023-04-24T03:24:44;10.10;90.50
20740;DHT22;10530;49.968;19.844;2023-04-24T03:29:50;10.50;85.20
20740;DHT22;10530;49.968;19.844;2023-04-24T03:35:08;10.80;81.40
20740;DHT22;10530;49.968;19.844;2023-04-24T03:40:11;10.70;82.80
20740;DHT22;10530;49.968;19.844;2023-04-24T03:45:15;10.80;78.20
20740;DHT22;10530;49.968;19.844;2023-04-24T03:50:22;11.00;76.60
20740;DHT22;10530;49.968;19.844;2023-04-24T03:55:25;11.10;74.60
20740;DHT22;10530;49.968;19.844;2023-04-24T04:00:28;11.20;76.00
20740;DHT22;10530;49.968;19.844;2023-04-24T04:05:54;11.40;69.50
20740;DHT22;10530;49.968;19.844;2023-04-24T04:10:57;11.30;66.70
20740;DHT22;10530;49.968;19.844;2023-04-24T04:15:59;10.90;84.60
20740;DHT22;10530;49.968;19.844;2023-04-24T04:21:02;10.40;88.60
20740;DHT22;10530;49.968;19.844;2023-04-24T04:26:06;10.00;97.00
20740;DHT22;10530;49.968;19.844;2023-04-24T04:31:33;9.80;99.90
20740;DHT22;10530;49.968;19.844;2023-04-24T04:36:41;10.00;99.70
20740;DHT22;10530;49.968;19.844;2023-04-24T04:42:14;9.80;99.90
20740;DHT22;10530;49.968;19.844;2023-04-24T04:47:21;10.00;99.90
20740;DHT22;10530;49.968;19.844;2023-04-24T04:52:29;10.00;99.90
20740;DHT22;10530;49.968;19.844;2023-04-24T04:57:42;10.20;99.90
20740;DHT22;10530;49.968;19.844;2023-04-24T05:02:45;10.70;99.90
20740;DHT22;10530;49.968;19.844;2023-04-24T05:07:48;11.00;99.00
20740;DHT22;10530;49.968;19.844;2023-04-24T05:12:51;11.50;92.80
20740;DHT22;10530;49.968;19.844;2023-04-24T05:17:54;12.00;93.20
20740;DHT22;10530;49.968;19.844;2023-04-24T05:23:00;12.90;73.80
20740;DHT22;10530;49.968;19.844;2023-04-24T05:28:04;13.30;70.90
20740;DHT22;10530;49.968;19.844;2023-04-24T05:33:08;13.70;63.70
20740;DHT22;10530;49.968;19.844;2023-04-24T05:38:13;14.30;56.90
20740;DHT22;10530;49.968;19.844;2023-04-24T05:43:15;14.70;49.30
20740;DHT22;10530;49.968;19.844;2023-04-24T05:48:19;15.10;46.60
20740;DHT22;10530;49.968;19.844;2023-04-24T05:53:22;15.40;43.30
20740;DHT22;10530;49.968;19.844;2023-04-24T05:58:25;15.80;42.60
20740;DHT22;10530;49.968;19.844;2023-04-24T06:03:28;16.40;45.10
20740;DHT22;10530;49.968;19.844;2023-04-24T06:08:32;16.90;33.90
20740;DHT22;10530;49.968;19.844;2023-04-24T06:13:36;17.00;34.40
20740;DHT22;10530;49.968;19.844;2023-04-24T06:18:57;17.00;31.00
20740;DHT22;10530;49.968;19.844;2023-04-24T06:24:01;17.40;30.00
20740;DHT22;10530;49.968;19.844;2023-04-24T06:29:06;17.80;28.70
20740;DHT22;10530;49.968;19.844;2023-04-24T06:34:10;18.10;26.30
20740;DHT22;10530;49.968;19.844;2023-04-24T06:39:13;18.00;23.40
20740;DHT22;10530;49.968;19.844;2023-04-24T06:44:16;18.00;22.20
20740;DHT22;10530;49.968;19.844;2023-04-24T06:49:19;18.00;22.60
20740;DHT22;10530;49.968;19.844;2023-04-24T06:54:22;18.40;24.30
20740;DHT22;10530;49.968;19.844;2023-04-24T06:59:25;18.90;22.40
20740;DHT22;10530;49.968;19.844;2023-04-24T07:04:28;19.00;20.20
20740;DHT22;10530;49.968;19.844;2023-04-24T07:09:31;19.30;19.10
20740;DHT22;10530;49.968;19.844;2023-04-24T07:14:34;19.50;20.30
20740;DHT22;10530;49.968;19.844;2023-04-24T07:19:37;19.90;18.60
20740;DHT22;10530;49.968;19.844;2023-04-24T07:24:40;20.10;18.90
20740;DHT22;10530;49.968;19.844;2023-04-24T07:29:43;20.00;18.90
20740;DHT22;10530;49.968;19.844;2023-04-24T07:34:46;19.90;16.40
20740;DHT22;10530;49.968;19.844;2023-04-24T07:39:49;20.30;16.40
20740;DHT22;10530;49.968;19.844;2023-04-24T07:44:52;20.70;17.10
20740;DHT22;10530;49.968;19.844;2023-04-24T07:49:55;20.30;17.50
20740;DHT22;10530;49.968;19.844;2023-04-24T07:54:58;20.50;14.70
20740;DHT22;10530;49.968;19.844;2023-04-24T08:00:04;21.10;15.80
20740;DHT22;10530;49.968;19.844;2023-04-24T08:05:14;20.80;12.80
20740;DHT22;10530;49.968;19.844;2023-04-24T08:10:17;21.30;12.50
20740;DHT22;10530;49.968;19.844;2023-04-24T08:15:20;21.30;12.80
20740;DHT22;10530;49.968;19.844;2023-04-24T08:20:23;21.20;12.10
20740;DHT22;10530;49.968;19.844;2023-04-24T08:25:25;21.00;13.70
20740;DHT22;10530;49.968;19.844;2023-04-24T08:30:28;21.70;12.30
20740;DHT22;10530;49.968;19.844;2023-04-24T08:35:32;21.90;11.70
20740;DHT22;10530;49.968;19.844;2023-04-24T08:40:36;21.20;11.40
20740;DHT22;10530;49.968;19.844;2023-04-24T08:45:40;21.60;11.10
20740;DHT22;10530;49.968;19.844;2023-04-24T08:50:43;22.10;11.90
20740;DHT22;10530;49.968;19.844;2023-04-24T08:55:48;23.20;9.60
20740;DHT22;10530;49.968;19.844;2023-04-24T09:00:51;23.70;11.80
20740;DHT22;10530;49.968;19.844;2023-04-24T09:05:55;23.80;6.00
20740;DHT22;10530;49.968;19.844;2023-04-24T09:11:01;23.80;5.20
20740;DHT22;10530;49.968;19.844;2023-04-24T09:16:05;23.80;5.90
20740;DHT22;10530;49.968;19.844;2023-04-24T09:21:09;24.40;3.90
20740;DHT22;10530;49.968;19.844;2023-04-24T09:26:12;24.50;5.40
20740;DHT22;10530;49.968;19.844;2023-04-24T09:31:19;25.60;3.70
20740;DHT22;10530;49.968;19.844;2023-04-24T09:36:28;25.90;3.20
20740;DHT22;10530;49.968;19.844;2023-04-24T09:41:32;26.10;1.00
20740;DHT22;10530;49.968;19.844;2023-04-24T09:46:35;23.90;1.70
20740;DHT22;10530;49.968;19.844;2023-04-24T09:51:39;24.50;1.00
20740;DHT22;10530;49.968;19.844;2023-04-24T09:56:45;24.60;1.00
20740;DHT22;10530;49.968;19.844;2023-04-24T10:01:49;24.50;2.00
20740;DHT22;10530;49.968;19.844;2023-04-24T10:06:56;26.20;1.00
20740;DHT22;10530;49.968;19.844;2023-04-24T10:12:00;27.00;1.00
20740;DHT22;10530;49.968;19.844;2023-04-24T10:17:05;26.10;1.00
20740;DHT22;10530;49.968;19.844;2023-04-24T10:22:09;25.20;1.00
20740;DHT22;10530;49.968;19.844;2023-04-24T10:27:13;25.00;1.00
20740;DHT22;10530;49.968;19.844;2023-04-24T10:32:17;25.70;1.00
20740;DHT22;10530;49.968;19.844;2023-04-24T10:37:20;25.60;1.00
20740;DHT22;10530;49.968;19.844;2023-04-24T10:42:24;24.50;1.00
20740;DHT22;10530;49.968;19.844;2023-04-24T10:47:29;25.30;1.00
20740;DHT22;10530;49.968;19.844;2023-04-24T10:52:46;25.40;2.90
20740;DHT22;10530;49.968;19.844;2023-04-24T10:58:02;24.90;1.00
20740;DHT22;10530;49.968;19.844;2023-04-24T11:03:09;26.20;1.00
20740;DHT22;10530;49.968;19.844;2023-04-24T11:08:29;24.90;1.00
20740;DHT22;10530;49.968;19.844;2023-04-24T11:19:05;26.10;1.00
20740;DHT22;10530;49.968;19.844;2023-04-24T11:29:42;25.80;1.00
20740;DHT22;10530;49.968;19.844;2023-04-24T11:35:33;26.90;1.00
20740;DHT22;10530;49.968;19.844;2023-04-24T11:40:11;26.10;1.00
20740;DHT22;10530;49.968;19.844;2023-04-24T11:45:21;26.60;1.00
20740;DHT22;10530;49.968;19.844;2023-04-24T11:50:26;27.90;1.00
20740;DHT22;10530;49.968;19.844;2023-04-24T11:55:30;27.60;1.00
20740;DHT22;10530;49.968;19.844;2023-04-24T12:00:32;27.80;1.00
20740;DHT22;10530;49.968;19.844;2023-04-24T12:05:37;28.10;1.00
20740;DHT22;10530;49.968;19.844;2023-04-24T12:10:41;26.90;1.00
20740;DHT22;10530;49.968;19.844;2023-04-24T12:15:44;24.70;2.90
20740;DHT22;10530;49.968;19.844;2023-04-24T12:20:47;22.60;6.30
20740;DHT22;10530;49.968;19.844;2023-04-24T12:25:51;22.40;10.00
20740;DHT22;10530;49.968;19.844;2023-04-24T12:30:54;22.60;13.40
20740;DHT22;10530;49.968;19.844;2023-04-24T12:35:57;22.70;11.80
20740;DHT22;10530;49.968;19.844;2023-04-24T12:41:09;22.30;12.60
20740;DHT22;10530;49.968;19.844;2023-04-24T12:46:12;21.70;14.10
20740;DHT22;10530;49.968;19.844;2023-04-24T12:51:17;20.70;15.90
20740;DHT22;10530;49.968;19.844;2023-04-24T12:56:20;20.10;17.90
20740;DHT22;10530;49.968;19.844;2023-04-24T13:01:23;20.10;18.60
20740;DHT22;10530;49.968;19.844;2023-04-24T13:06:26;20.30;18.30
20740;DHT22;10530;49.968;19.844;2023-04-24T13:11:29;20.30;19.40
20740;DHT22;10530;49.968;19.844;2023-04-24T13:16:31;20.20;19.30
20740;DHT22;10530;49.968;19.844;2023-04-24T13:21:34;20.00;20.70
20740;DHT22;10530;49.968;19.844;2023-04-24T13:26:37;19.60;19.50
20740;DHT22;10530;49.968;19.844;2023-04-24T13:31:40;19.40;21.20
20740;DHT22;10530;49.968;19.844;2023-04-24T13:36:43;19.30;20.70
20740;DHT22;10530;49.968;19.844;2023-04-24T13:41:46;19.20;20.70
20740;DHT22;10530;49.968;19.844;2023-04-24T13:46:53;19.10;21.40
20740;DHT22;10530;49.968;19.844;2023-04-24T13:51:57;19.30;21.20
20740;DHT22;10530;49.968;19.844;2023-04-24T13:57:00;19.20;22.10
20740;DHT22;10530;49.968;19.844;2023-04-24T14:02:03;19.50;22.30
20740;DHT22;10530;49.968;19.844;2023-04-24T14:07:06;19.30;23.40
20740;DHT22;10530;49.968;19.844;2023-04-24T14:12:10;19.00;23.20
20740;DHT22;10530;49.968;19.844;2023-04-24T14:17:13;19.10;23.90
20740;DHT22;10530;49.968;19.844;2023-04-24T14:22:16;18.50;23.00
20740;DHT22;10530;49.968;19.844;2023-04-24T14:27:19;18.30;25.30
20740;DHT22;10530;49.968;19.844;2023-04-24T14:32:22;17.60;25.30
20740;DHT22;10530;49.968;19.844;2023-04-24T14:37:25;17.70;26.70
20740;DHT22;10530;49.968;19.844;2023-04-24T14:42:28;17.80;27.60
20740;DHT22;10530;49.968;19.844;2023-04-24T14:47:31;17.40;27.80
20740;DHT22;10530;49.968;19.844;2023-04-24T14:52:34;17.10;29.80
20740;DHT22;10530;49.968;19.844;2023-04-24T14:57:38;16.70;31.90
20740;DHT22;10530;49.968;19.844;2023-04-24T15:02:41;16.70;33.30
20740;DHT22;10530;49.968;19.844;2023-04-24T15:07:47;16.60;35.60
20740;DHT22;10530;49.968;19.844;2023-04-24T15:12:50;16.70;36.70
20740;DHT22;10530;49.968;19.844;2023-04-24T15:17:53;16.70;38.20
20740;DHT22;10530;49.968;19.844;2023-04-24T15:22:56;16.90;42.00
20740;DHT22;10530;49.968;19.844;2023-04-24T15:27:59;16.50;40.10
20740;DHT22;10530;49.968;19.844;2023-04-24T15:33:02;16.20;43.30
20740;DHT22;10530;49.968;19.844;2023-04-24T15:38:06;16.10;48.50
20740;DHT22;10530;49.968;19.844;2023-04-24T15:43:08;15.70;51.80
20740;DHT22;10530;49.968;19.844;2023-04-24T15:48:11;15.50;53.30
20740;DHT22;10530;49.968;19.844;2023-04-24T15:53:14;15.50;54.70
20740;DHT22;10530;49.968;19.844;2023-04-24T15:58:24;15.40;57.70
20740;DHT22;10530;49.968;19.844;2023-04-24T16:03:27;15.30;63.10
20740;DHT22;10530;49.968;19.844;2023-04-24T16:08:30;15.40;69.00
20740;DHT22;10530;49.968;19.844;2023-04-24T16:13:33;15.20;74.60
20740;DHT22;10530;49.968;19.844;2023-04-24T16:18:36;15.10;79.10
20740;DHT22;10530;49.968;19.844;2023-04-24T16:23:38;15.00;78.10
20740;DHT22;10530;49.968;19.844;2023-04-24T16:28:41;15.00;79.10
20740;DHT22;10530;49.968;19.844;2023-04-24T16:33:44;15.00;82.90
20740;DHT22;10530;49.968;19.844;2023-04-24T16:38:47;15.00;89.30
20740;DHT22;10530;49.968;19.844;2023-04-24T16:43:51;14.70;90.10
20740;DHT22;10530;49.968;19.844;2023-04-24T16:48:56;14.70;92.90
20740;DHT22;10530;49.968;19.844;2023-04-24T16:53:59;14.60;99.90
20740;DHT22;10530;49.968;19.844;2023-04-24T16:59:02;14.40;99.90
20740;DHT22;10530;49.968;19.844;2023-04-24T17:04:05;14.30;99.90
20740;DHT22;10530;49.968;19.844;2023-04-24T17:09:08;14.20;99.90
20740;DHT22;10530;49.968;19.844;2023-04-24T17:14:11;14.00;99.90
20740;DHT22;10530;49.968;19.844;2023-04-24T17:19:14;13.90;99.90
20740;DHT22;10530;49.968;19.844;2023-04-24T17:24:16;14.00;99.90
20740;DHT22;10530;49.968;19.844;2023-04-24T17:29:19;13.90;99.90
20740;DHT22;10530;49.968;19.844;2023-04-24T17:34:22;13.80;99.90
20740;DHT22;10530;49.968;19.844;2023-04-24T17:39:25;13.80;99.90
20740;DHT22;10530;49.968;19.844;2023-04-24T17:44:28;13.60;99.90
20740;DHT22;10530;49.968;19.844;2023-04-24T17:49:30;13.50;99.90
20740;DHT22;10530;49.968;19.844;2023-04-24T17:54:34;13.30;99.90
20740;DHT22;10530;49.968;19.844;2023-04-24T17:59:37;13.10;99.90
20740;DHT22;10530;49.968;19.844;2023-04-24T18:04:40;13.00;99.90
20740;DHT22;10530;49.968;19.844;2023-04-24T18:09:45;13.00;99.90
20740;DHT22;10530;49.968;19.844;2023-04-24T18:14:48;12.80;99.90
20740;DHT22;10530;49.968;19.844;2023-04-24T18:19:54;12.80;99.90
20740;DHT22;10530;49.968;19.844;2023-04-24T18:24:57;12.90;99.90
20740;DHT22;10530;49.968;19.844;2023-04-24T18:29:59;12.70;99.90
20740;DHT22;10530;49.968;19.844;2023-04-24T18:35:02;12.70;99.90
20740;DHT22;10530;49.968;19.844;2023-04-24T18:40:08;12.70;99.90
20740;DHT22;10530;49.968;19.844;2023-04-24T18:45:11;12.50;99.90
20740;DHT22;10530;49.968;19.844;2023-04-24T18:50:16;12.50;99.90
20740;DHT22;10530;49.968;19.844;2023-04-24T18:55:20;12.50;99.90
20740;DHT22;10530;49.968;19.844;2023-04-24T19:00:23;12.70;99.90
20740;DHT22;10530;49.968;19.844;2023-04-24T19:05:26;12.70;99.90
20740;DHT22;10530;49.968;19.844;2023-04-24T19:10:29;12.70;99.90
20740;DHT22;10530;49.968;19.844;2023-04-24T19:15:32;12.60;99.90
20740;DHT22;10530;49.968;19.844;2023-04-24T19:20:35;12.50;99.90
20740;DHT22;10530;49.968;19.844;2023-04-24T19:25:38;12.50;99.90
20740;DHT22;10530;49.968;19.844;2023-04-24T19:30:41;12.40;99.90
20740;DHT22;10530;49.968;19.844;2023-04-24T19:35:44;12.30;99.90
20740;DHT22;10530;49.968;19.844;2023-04-24T19:40:47;12.40;99.90
20740;DHT22;10530;49.968;19.844;2023-04-24T19:45:50;12.50;99.90
20740;DHT22;10530;49.968;19.844;2023-04-24T19:50:53;12.50;99.90
20740;DHT22;10530;49.968;19.844;2023-04-24T19:55:55;12.40;99.90
20740;DHT22;10530;49.968;19.844;2023-04-24T20:00:58;12.20;99.90
20740;DHT22;10530;49.968;19.844;2023-04-24T20:06:02;12.30;99.90
20740;DHT22;10530;49.968;19.844;2023-04-24T20:11:05;12.20;99.90
20740;DHT22;10530;49.968;19.844;2023-04-24T20:16:08;12.20;99.90
20740;DHT22;10530;49.968;19.844;2023-04-24T20:21:12;12.30;99.90
20740;DHT22;10530;49.968;19.844;2023-04-24T20:26:15;12.30;99.90
20740;DHT22;10530;49.968;19.844;2023-04-24T20:31:18;12.40;99.90
20740;DHT22;10530;49.968;19.844;2023-04-24T20:36:21;12.40;99.90
20740;DHT22;10530;49.968;19.844;2023-04-24T20:41:24;12.40;99.90
20740;DHT22;10530;49.968;19.844;2023-04-24T20:46:28;12.30;99.90
20740;DHT22;10530;49.968;19.844;2023-04-24T20:51:30;12.40;99.90
20740;DHT22;10530;49.968;19.844;2023-04-24T20:56:34;12.40;99.90
20740;DHT22;10530;49.968;19.844;2023-04-24T21:01:37;12.30;99.90
20740;DHT22;10530;49.968;19.844;2023-04-24T21:06:40;12.30;99.90
20740;DHT22;10530;49.968;19.844;2023-04-24T21:11:42;12.30;99.90
20740;DHT22;10530;49.968;19.844;2023-04-24T21:16:45;12.30;99.90
20740;DHT22;10530;49.968;19.844;2023-04-24T21:21:48;12.30;99.90
20740;DHT22;10530;49.968;19.844;2023-04-24T21:26:50;12.40;99.90
20740;DHT22;10530;49.968;19.844;2023-04-24T21:31:53;12.40;99.90
20740;DHT22;10530;49.968;19.844;2023-04-24T21:36:56;12.30;99.90
20740;DHT22;10530;49.968;19.844;2023-04-24T21:41:59;12.30;99.90
20740;DHT22;10530;49.968;19.844;2023-04-24T21:47:02;12.20;99.90
20740;DHT22;10530;49.968;19.844;2023-04-24T21:52:04;12.00;99.90
20740;DHT22;10530;49.968;19.844;2023-04-24T21:57:07;11.90;99.90
20740;DHT22;10530;49.968;19.844;2023-04-24T22:02:10;11.70;99.90
20740;DHT22;10530;49.968;19.844;2023-04-24T22:07:13;11.70;99.90
20740;DHT22;10530;49.968;19.844;2023-04-24T22:12:16;11.60;99.90
20740;DHT22;10530;49.968;19.844;2023-04-24T22:17:19;11.50;99.90
20740;DHT22;10530;49.968;19.844;2023-04-24T22:22:23;11.40;99.90
20740;DHT22;10530;49.968;19.844;2023-04-24T22:27:25;11.40;99.90
20740;DHT22;10530;49.968;19.844;2023-04-24T22:32:29;11.40;99.90
20740;DHT22;10530;49.968;19.844;2023-04-24T22:37:34;11.30;99.90
20740;DHT22;10530;49.968;19.844;2023-04-24T22:42:37;11.20;99.90
20740;DHT22;10530;49.968;19.844;2023-04-24T22:47:40;11.20;99.90
20740;DHT22;10530;49.968;19.844;2023-04-24T22:52:43;11.20;99.90
20740;DHT22;10530;49.968;19.844;2023-04-24T22:57:47;11.10;99.90
20740;DHT22;10530;49.968;19.844;2023-04-24T23:02:51;11.10;99.90
20740;DHT22;10530;49.968;19.844;2023-04-24T23:07:54;11.10;99.90
20740;DHT22;10530;49.968;19.844;2023-04-24T23:12:57;11.10;99.90
20740;DHT22;10530;49.968;19.844;2023-04-24T23:18:00;11.00;99.90
20740;DHT22;10530;49.968;19.844;2023-04-24T23:23:03;11.00;99.90
20740;DHT22;10530;49.968;19.844;2023-04-24T23:28:06;11.00;99.90
20740;DHT22;10530;49.968;19.844;2023-04-24T23:33:08;11.00;99.90
20740;DHT22;10530;49.968;19.844;2023-04-24T23:38:11;10.90;99.90
20740;DHT22;10530;49.968;19.844;2023-04-24T23:43:14;10.80;99.90
20740;DHT22;10530;49.968;19.844;2023-04-24T23:48:17;10.80;99.90
20740;DHT22;10530;49.968;19.844;2023-04-24T23:53:20;10.70;99.90
20740;DHT22;10530;49.968;19.844;2023-04-24T23:58:23;10.50;99.90
